Cooksville, Illinois
Current Conditions -  °F | °C
As of 2:56 AM on Friday 19 Dec 2014 (Local Time) from KBMI Reporting Station
Clear Clear  
Wind Chill: 19°   Ceiling: Unl
Heat Index: 19°   Visibility: 8mi
Dew Point: 17°   Wind: 3mph
Humidity: 92%   Direction: 20°NNE
Pressure: 30.29"   Gusts: NA
Location:  40.54°N, 88.72°W
Report Text: KBMI 190856Z AUTO 02003KT 8SM CLR M07/M08 A3029 RMK AO2 53000 T10721083 SLP280
Loading
Personal Weather Stations






























Interactive Weather Map New forecast layout! Learn more

10-Day Weather Forecast

Advertisements
Track Severe Weather on mobile